Time;durP1;ratioP1;P1;durP2;ratioP2;P2;SDS_P1;SDS_P2;PMS_P1;PMS_P2;Temp;Humidity;BMP_temperature;BMP_pressure;BME280_temperature;BME280_humidity;BME280_pressure;Samples;Min_cycle;Max_cycle;Signal;HPM_P1;HPM_P2
2023/08/22 00:00:20;;;;;;;8.38;6.35;;;;;;;;;;4894317;29;20079;-75
2023/08/22 00:02:46;;;;;;;9.75;6.50;;;;;;;;;;4893369;29;20095;-77
2023/08/22 00:05:11;;;;;;;11.75;6.30;;;;;;;;;;4894339;29;20557;-77
2023/08/22 00:07:38;;;;;;;6.95;5.82;;;;;;;;;;4876723;29;20045;-76
2023/08/22 00:10:05;;;;;;;7.72;6.78;;;;;;;;;;4894098;29;20067;-75
2023/08/22 00:12:31;;;;;;;10.73;6.22;;;;;;;;;;4893549;29;20560;-78
2023/08/22 00:14:56;;;;;;;8.18;6.43;;;;;;;;;;4893770;29;20048;-76
2023/08/22 00:17:21;;;;;;;9.30;6.90;;;;;;;;;;4908235;29;20052;-75
2023/08/22 00:19:47;;;;;;;8.13;6.25;;;;;;;;;;4912218;29;20051;-76
2023/08/22 00:22:12;;;;;;;9.82;6.03;;;;;;;;;;4911847;29;20051;-75
2023/08/22 00:24:38;;;;;;;11.98;6.10;;;;;;;;;;4911908;29;20135;-75
2023/08/22 00:27:04;;;;;;;8.45;5.30;;;;;;;;;;4912532;29;20055;-77
2023/08/22 00:29:31;;;;;;;7.38;5.68;;;;;;;;;;4912742;29;20591;-77
2023/08/22 00:31:59;;;;;;;7.45;5.60;;;;;;;;;;4894877;29;20139;-76
2023/08/22 00:34:25;;;;;;;8.65;5.25;;;;;;;;;;4901766;29;20075;-76
2023/08/22 00:36:50;;;;;;;6.60;5.40;;;;;;;;;;4892598;29;20145;-75
2023/08/22 00:39:16;;;;;;;5.65;5.10;;;;;;;;;;4912687;29;20059;-75
2023/08/22 00:41:42;;;;;;;6.80;5.28;;;;;;;;;;4911762;29;20119;-76
2023/08/22 00:44:08;;;;;;;7.93;6.10;;;;;;;;;;4879932;29;20052;-79
2023/08/22 00:46:34;;;;;;;8.68;5.70;;;;;;;;;;4911539;29;20056;-75
2023/08/22 00:49:03;;;;;;;6.97;5.40;;;;;;;;;;4912169;29;20055;-76
2023/08/22 00:51:28;;;;;;;7.70;5.75;;;;;;;;;;4912207;29;20428;-76
2023/08/22 00:53:54;;;;;;;7.25;6.10;;;;;;;;;;4912182;29;20052;-78
2023/08/22 00:56:20;;;;;;;8.35;6.57;;;;;;;;;;4912733;29;20048;-76
2023/08/22 00:58:46;;;;;;;9.02;6.45;;;;;;;;;;4915508;29;20106;-78
2023/08/22 01:01:11;;;;;;;8.23;5.75;;;;;;;;;;4912228;29;20643;-75
2023/08/22 01:03:37;;;;;;;8.32;6.20;;;;;;;;;;4894506;29;20051;-79
2023/08/22 01:06:27;;;;;;;8.57;6.45;;;;;;;;;;4895252;29;20085;-76
2023/08/22 01:09:00;;;;;;;11.27;6.20;;;;;;;;;;4893911;29;20505;-75
2023/08/22 01:11:34;;;;;;;7.82;6.13;;;;;;;;;;4894928;29;20055;-77
2023/08/22 01:14:04;;;;;;;8.90;6.03;;;;;;;;;;4911391;29;20048;-76
2023/08/22 01:16:30;;;;;;;10.05;6.30;;;;;;;;;;4912112;29;20644;-75
2023/08/22 01:19:00;;;;;;;8.05;6.13;;;;;;;;;;4914585;29;20055;-76
2023/08/22 01:21:26;;;;;;;9.98;6.10;;;;;;;;;;4909570;29;20986;-76
2023/08/22 01:23:52;;;;;;;7.57;5.88;;;;;;;;;;4914329;29;20051;-77
2023/08/22 01:26:17;;;;;;;7.45;6.20;;;;;;;;;;4909449;29;20044;-76
2023/08/22 01:28:46;;;;;;;6.60;5.63;;;;;;;;;;4898154;29;20417;-77
2023/08/22 01:31:25;;;;;;;6.85;5.82;;;;;;;;;;4903609;29;20040;-76
2023/08/22 01:33:56;;;;;;;9.95;6.50;;;;;;;;;;4902420;29;20418;-75
2023/08/22 01:36:23;;;;;;;7.28;5.68;;;;;;;;;;4894637;29;20044;-76
2023/08/22 01:38:52;;;;;;;6.45;5.47;;;;;;;;;;4893314;29;20051;-76
2023/08/22 01:41:19;;;;;;;7.47;5.95;;;;;;;;;;4906481;29;20088;-77
2023/08/22 01:43:45;;;;;;;9.18;5.90;;;;;;;;;;4914542;29;20040;-76
2023/08/22 01:46:10;;;;;;;5.88;5.28;;;;;;;;;;4907770;29;20460;-76
2023/08/22 01:48:36;;;;;;;10.48;5.38;;;;;;;;;;4915377;29;20063;-76
2023/08/22 01:51:02;;;;;;;7.53;5.35;;;;;;;;;;4914463;29;20052;-76
2023/08/22 01:53:28;;;;;;;10.90;5.50;;;;;;;;;;4915357;29;20047;-77
2023/08/22 01:55:59;;;;;;;6.68;5.90;;;;;;;;;;4897496;29;20134;-76
2023/08/22 01:58:25;;;;;;;9.85;5.78;;;;;;;;;;4898239;29;20052;-76
2023/08/22 02:00:51;;;;;;;9.32;6.22;;;;;;;;;;4898320;29;20044;-75
2023/08/22 02:03:17;;;;;;;7.35;5.72;;;;;;;;;;4914740;29;20059;-75
2023/08/22 02:05:42;;;;;;;8.40;6.03;;;;;;;;;;4897466;29;20044;-76
2023/08/22 02:08:09;;;;;;;6.90;5.43;;;;;;;;;;4915456;29;20048;-75
2023/08/22 02:10:35;;;;;;;8.13;6.05;;;;;;;;;;4897795;23;20118;-72
2023/08/22 02:13:00;;;;;;;9.45;6.05;;;;;;;;;;4913680;29;20125;-72
2023/08/22 02:15:26;;;;;;;6.65;5.95;;;;;;;;;;4913287;29;20441;-72
2023/08/22 02:17:52;;;;;;;6.68;5.95;;;;;;;;;;4912908;29;20508;-71
2023/08/22 02:20:19;;;;;;;9.23;6.03;;;;;;;;;;4886757;29;20055;-72
2023/08/22 02:22:44;;;;;;;7.93;5.95;;;;;;;;;;4895675;29;20586;-72
2023/08/22 02:25:11;;;;;;;7.45;6.03;;;;;;;;;;4895080;29;20044;-71
2023/08/22 02:27:37;;;;;;;8.70;6.25;;;;;;;;;;4895271;29;20046;-72
2023/08/22 02:30:10;;;;;;;7.53;6.15;;;;;;;;;;4895677;29;20092;-73
2023/08/22 02:32:38;;;;;;;9.23;6.50;;;;;;;;;;4914260;29;20044;-72
2023/08/22 02:35:03;;;;;;;7.10;6.40;;;;;;;;;;4907976;29;20424;-72
2023/08/22 02:37:29;;;;;;;10.00;6.03;;;;;;;;;;4905128;29;20055;-72
2023/08/22 02:39:55;;;;;;;10.50;6.43;;;;;;;;;;4912949;29;20056;-72
2023/08/22 02:42:22;;;;;;;9.85;6.82;;;;;;;;;;4913038;29;20044;-73
2023/08/22 02:44:47;;;;;;;7.82;6.10;;;;;;;;;;4907306;29;20080;-73
2023/08/22 02:47:13;;;;;;;8.85;7.13;;;;;;;;;;4912177;29;20155;-73
2023/08/22 02:49:38;;;;;;;14.38;7.90;;;;;;;;;;4896370;29;20195;-73
2023/08/22 02:52:04;;;;;;;10.88;7.85;;;;;;;;;;4897068;29;20816;-73
2023/08/22 02:54:29;;;;;;;12.50;7.57;;;;;;;;;;4914494;29;20416;-72
2023/08/22 02:56:55;;;;;;;12.52;8.40;;;;;;;;;;4901435;29;20051;-72
2023/08/22 02:59:20;;;;;;;10.13;8.23;;;;;;;;;;4913146;29;20039;-72
2023/08/22 03:01:46;;;;;;;8.73;7.70;;;;;;;;;;4913623;29;20055;-73
2023/08/22 03:04:11;;;;;;;11.95;7.53;;;;;;;;;;4913176;29;20059;-72
2023/08/22 03:06:37;;;;;;;11.85;7.90;;;;;;;;;;4912992;29;20048;-72
2023/08/22 03:09:06;;;;;;;10.52;8.07;;;;;;;;;;4911841;29;20052;-71
2023/08/22 03:11:32;;;;;;;9.80;8.13;;;;;;;;;;4912446;29;20063;-72
2023/08/22 03:13:57;;;;;;;9.07;7.97;;;;;;;;;;4896333;29;20525;-71
2023/08/22 03:16:23;;;;;;;11.02;8.13;;;;;;;;;;4896660;29;20058;-72
2023/08/22 03:18:48;;;;;;;16.60;8.90;;;;;;;;;;4911934;29;20139;-72
2023/08/22 03:21:14;;;;;;;11.32;8.88;;;;;;;;;;4913452;29;20079;-71
2023/08/22 03:23:40;;;;;;;11.13;8.15;;;;;;;;;;4911754;29;20046;-71
2023/08/22 03:26:13;;;;;;;11.52;7.97;;;;;;;;;;4896445;29;20052;-72
2023/08/22 03:28:40;;;;;;;14.63;8.88;;;;;;;;;;4912211;29;20048;-71
2023/08/22 03:31:05;;;;;;;11.52;7.97;;;;;;;;;;4901993;29;20098;-72
2023/08/22 03:33:33;;;;;;;14.50;9.00;;;;;;;;;;4910398;29;20048;-72
2023/08/22 03:35:59;;;;;;;11.55;8.80;;;;;;;;;;4908740;29;20056;-72
2023/08/22 03:38:25;;;;;;;13.38;8.20;;;;;;;;;;4896454;29;20429;-71
2023/08/22 03:40:53;;;;;;;11.95;8.57;;;;;;;;;;4911092;29;20055;-71
2023/08/22 03:43:19;;;;;;;11.48;8.27;;;;;;;;;;4911961;29;20044;-71
2023/08/22 03:45:45;;;;;;;11.77;8.10;;;;;;;;;;4895462;29;20046;-71
2023/08/22 03:48:11;;;;;;;10.63;9.00;;;;;;;;;;4908301;29;20135;-71
2023/08/22 03:50:41;;;;;;;10.60;8.48;;;;;;;;;;4900644;29;20130;-72
2023/08/22 03:53:07;;;;;;;9.35;8.30;;;;;;;;;;4895234;29;20051;-72
2023/08/22 03:55:34;;;;;;;11.80;8.68;;;;;;;;;;4911276;29;20052;-72
2023/08/22 03:58:00;;;;;;;11.50;9.10;;;;;;;;;;4910749;29;20044;-72
2023/08/22 04:00:26;;;;;;;12.77;9.10;;;;;;;;;;4911713;29;20047;-72
2023/08/22 04:02:58;;;;;;;12.77;8.45;;;;;;;;;;4911064;29;20048;-72
2023/08/22 04:05:25;;;;;;;12.52;7.80;;;;;;;;;;4912882;29;20096;-71
2023/08/22 04:07:51;;;;;;;10.50;8.43;;;;;;;;;;4911186;29;20052;-73
2023/08/22 04:10:18;;;;;;;10.88;8.02;;;;;;;;;;4911320;29;20052;-72
2023/08/22 04:12:43;;;;;;;12.50;7.80;;;;;;;;;;4911359;29;20994;-71
2023/08/22 04:15:10;;;;;;;11.40;8.50;;;;;;;;;;4905315;29;20066;-71
2023/08/22 04:17:38;;;;;;;14.27;8.00;;;;;;;;;;4910771;29;20416;-70
2023/08/22 04:20:07;;;;;;;11.00;7.50;;;;;;;;;;4911352;29;20052;-71
2023/08/22 04:22:34;;;;;;;12.80;8.27;;;;;;;;;;4911313;29;20044;-73
2023/08/22 04:25:00;;;;;;;11.00;7.40;;;;;;;;;;4879305;29;20036;-73
2023/08/22 04:27:26;;;;;;;12.25;8.38;;;;;;;;;;4911176;29;20044;-71
2023/08/22 04:29:51;;;;;;;10.35;8.57;;;;;;;;;;4910573;29;20095;-70
2023/08/22 04:32:17;;;;;;;13.77;8.30;;;;;;;;;;4879483;29;20040;-71
2023/08/22 04:34:43;;;;;;;10.95;7.63;;;;;;;;;;4926853;29;20044;-71
2023/08/22 04:37:09;;;;;;;11.82;7.60;;;;;;;;;;4913423;29;20040;-71
2023/08/22 04:39:35;;;;;;;16.85;8.45;;;;;;;;;;4910428;28;20056;-74
2023/08/22 04:42:11;;;;;;;10.90;7.53;;;;;;;;;;4910780;29;20078;-72
2023/08/22 04:44:49;;;;;;;11.45;8.25;;;;;;;;;;4910988;29;20052;-71
2023/08/22 04:47:14;;;;;;;14.77;7.85;;;;;;;;;;4899264;29;20051;-71
2023/08/22 04:49:40;;;;;;;13.40;8.73;;;;;;;;;;4909950;29;20040;-71
2023/08/22 04:52:06;;;;;;;9.73;7.55;;;;;;;;;;4912260;29;20509;-71
2023/08/22 04:54:31;;;;;;;10.30;7.93;;;;;;;;;;4911128;29;20074;-74
2023/08/22 04:56:57;;;;;;;15.63;7.88;;;;;;;;;;4911063;29;20082;-70
2023/08/22 04:59:22;;;;;;;10.00;7.50;;;;;;;;;;4902079;29;20036;-70
2023/08/22 05:01:48;;;;;;;12.65;7.47;;;;;;;;;;4894223;29;20622;-71
2023/08/22 05:04:13;;;;;;;16.08;7.07;;;;;;;;;;4911010;29;20048;-71
2023/08/22 05:06:38;;;;;;;9.77;7.47;;;;;;;;;;4910724;29;20048;-71
2023/08/22 05:09:04;;;;;;;9.10;7.28;;;;;;;;;;4909632;29;20083;-71
2023/08/22 05:11:30;;;;;;;12.63;7.43;;;;;;;;;;4910317;29;20051;-72
2023/08/22 05:13:55;;;;;;;9.82;7.43;;;;;;;;;;4910555;29;20067;-71
2023/08/22 05:16:21;;;;;;;9.95;7.07;;;;;;;;;;4912027;29;20058;-74
2023/08/22 05:18:46;;;;;;;7.30;6.55;;;;;;;;;;4910691;29;20051;-72
2023/08/22 05:21:12;;;;;;;7.20;6.50;;;;;;;;;;4909545;29;20048;-73
2023/08/22 05:23:37;;;;;;;8.82;6.65;;;;;;;;;;4909821;29;20123;-71
2023/08/22 05:26:04;;;;;;;14.13;6.78;;;;;;;;;;4910591;29;20535;-72
2023/08/22 05:28:29;;;;;;;11.80;7.32;;;;;;;;;;4910510;29;20048;-74
2023/08/22 05:30:54;;;;;;;9.73;6.97;;;;;;;;;;4910646;29;20056;-72
2023/08/22 05:33:20;;;;;;;9.18;6.95;;;;;;;;;;4910425;29;20044;-72
2023/08/22 05:35:46;;;;;;;8.38;6.07;;;;;;;;;;4914345;29;20037;-71
2023/08/22 05:38:12;;;;;;;9.13;6.45;;;;;;;;;;4913523;29;20055;-72
2023/08/22 05:40:38;;;;;;;10.23;5.68;;;;;;;;;;4912583;29;20047;-72
2023/08/22 05:43:06;;;;;;;5.95;5.35;;;;;;;;;;4911906;29;20052;-73
2023/08/22 05:45:31;;;;;;;9.68;6.35;;;;;;;;;;4911472;29;20032;-74
2023/08/22 05:47:56;;;;;;;6.15;5.55;;;;;;;;;;4909700;29;20066;-72
2023/08/22 05:50:22;;;;;;;12.05;5.70;;;;;;;;;;4910011;29;20052;-71
2023/08/22 05:52:48;;;;;;;8.45;5.40;;;;;;;;;;4909511;29;20052;-73
2023/08/22 05:55:13;;;;;;;5.88;5.05;;;;;;;;;;4910117;29;20091;-73
2023/08/22 05:57:40;;;;;;;7.07;4.50;;;;;;;;;;4893897;29;20508;-72
2023/08/22 06:00:08;;;;;;;9.88;4.70;;;;;;;;;;4894544;29;20048;-71
2023/08/22 06:02:42;;;;;;;13.50;5.55;;;;;;;;;;4910307;29;20048;-71
2023/08/22 06:05:08;;;;;;;13.63;5.63;;;;;;;;;;4893751;29;20044;-74
2023/08/22 06:07:34;;;;;;;8.05;4.57;;;;;;;;;;4910323;29;20095;-72
2023/08/22 06:10:00;;;;;;;8.82;5.57;;;;;;;;;;4909419;29;20044;-72
2023/08/22 06:12:26;;;;;;;12.65;6.10;;;;;;;;;;4909753;29;20591;-72
2023/08/22 06:14:52;;;;;;;10.60;4.82;;;;;;;;;;4893675;29;20044;-72
2023/08/22 06:17:17;;;;;;;6.00;5.40;;;;;;;;;;4910020;29;20621;-71
2023/08/22 06:19:43;;;;;;;7.85;5.28;;;;;;;;;;4909909;29;20044;-74
2023/08/22 06:22:08;;;;;;;8.60;5.03;;;;;;;;;;4897732;29;20412;-72
2023/08/22 06:24:35;;;;;;;5.88;4.95;;;;;;;;;;4913645;29;20082;-71
2023/08/22 06:27:01;;;;;;;6.18;5.20;;;;;;;;;;4914035;29;20404;-72
2023/08/22 06:29:26;;;;;;;6.35;4.90;;;;;;;;;;4913261;29;20497;-73
2023/08/22 06:31:53;;;;;;;5.68;4.53;;;;;;;;;;4908933;29;20040;-71
2023/08/22 06:34:18;;;;;;;5.10;4.55;;;;;;;;;;4894619;29;20055;-74
2023/08/22 06:36:44;;;;;;;5.15;4.50;;;;;;;;;;4894097;29;20063;-71
2023/08/22 06:39:11;;;;;;;8.25;4.05;;;;;;;;;;4912773;29;20036;-71
2023/08/22 06:41:36;;;;;;;7.80;4.13;;;;;;;;;;4914116;29;20131;-71
2023/08/22 06:44:09;;;;;;;;;;;;;;;;;;4862963;29;20048;-71
2023/08/22 06:46:37;;;;;;;5.38;3.72;;;;;;;;;;4895381;29;20483;-71
2023/08/22 06:49:03;;;;;;;3.80;3.47;;;;;;;;;;4899324;29;20163;-71
2023/08/22 06:51:29;;;;;;;3.90;3.53;;;;;;;;;;4895374;29;20165;-71
2023/08/22 06:53:54;;;;;;;4.53;3.95;;;;;;;;;;4912829;29;20067;-71
2023/08/22 06:56:20;;;;;;;5.22;3.80;;;;;;;;;;4914395;29;20048;-71
2023/08/22 06:58:45;;;;;;;4.03;3.63;;;;;;;;;;4913921;29;20048;-74
2023/08/22 07:01:10;;;;;;;5.80;3.97;;;;;;;;;;4913771;29;20119;-71
2023/08/22 07:03:36;;;;;;;5.38;3.90;;;;;;;;;;4913721;28;20099;-75
2023/08/22 07:06:02;;;;;;;5.75;3.65;;;;;;;;;;4912833;29;20052;-72
2023/08/22 07:08:27;;;;;;;7.28;4.80;;;;;;;;;;4928792;29;20187;-70
2023/08/22 07:11:00;;;;;;;5.35;4.45;;;;;;;;;;4926882;29;20151;-72
2023/08/22 07:13:25;;;;;;;6.57;3.90;;;;;;;;;;4932942;29;20058;-71
2023/08/22 07:15:50;;;;;;;5.57;4.00;;;;;;;;;;4930228;28;20052;-71
2023/08/22 07:18:16;;;;;;;7.10;4.07;;;;;;;;;;4912491;29;20067;-72
2023/08/22 07:20:42;;;;;;;5.80;3.70;;;;;;;;;;4921565;28;20047;-73
2023/08/22 07:23:07;;;;;;;6.30;4.32;;;;;;;;;;4933203;28;20047;-72
2023/08/22 07:25:33;;;;;;;5.22;4.10;;;;;;;;;;4932660;29;20036;-72
2023/08/22 07:27:58;;;;;;;3.85;3.42;;;;;;;;;;4932122;28;20046;-72
2023/08/22 07:30:23;;;;;;;5.25;4.30;;;;;;;;;;4931950;29;20051;-71
2023/08/22 07:32:49;;;;;;;5.95;4.28;;;;;;;;;;4931960;29;20052;-73
2023/08/22 07:35:15;;;;;;;3.72;3.35;;;;;;;;;;4932326;28;20150;-74
2023/08/22 07:37:40;;;;;;;6.55;4.25;;;;;;;;;;4931983;29;20110;-71
2023/08/22 07:40:06;;;;;;;5.82;4.45;;;;;;;;;;4932388;28;20079;-71
2023/08/22 07:42:34;;;;;;;8.55;4.63;;;;;;;;;;4931520;29;20090;-71
2023/08/22 07:45:00;;;;;;;6.88;4.22;;;;;;;;;;4931876;29;20098;-71
2023/08/22 07:47:25;;;;;;;4.85;4.00;;;;;;;;;;4943094;28;20047;-71
2023/08/22 07:49:51;;;;;;;6.18;3.83;;;;;;;;;;4912766;28;20501;-73
2023/08/22 07:52:16;;;;;;;5.95;4.15;;;;;;;;;;4913298;28;20053;-74
2023/08/22 07:54:41;;;;;;;5.80;3.92;;;;;;;;;;4925043;29;20043;-72
2023/08/22 07:57:07;;;;;;;8.00;4.22;;;;;;;;;;4930829;29;20068;-73
2023/08/22 07:59:32;;;;;;;7.22;3.95;;;;;;;;;;4932237;28;20056;-72
2023/08/22 08:01:58;;;;;;;5.10;3.88;;;;;;;;;;4931071;29;20062;-73
2023/08/22 08:04:23;;;;;;;5.43;4.45;;;;;;;;;;4931719;29;20055;-72
2023/08/22 08:06:49;;;;;;;4.35;3.65;;;;;;;;;;4930807;29;20118;-72
2023/08/22 08:09:14;;;;;;;6.93;4.22;;;;;;;;;;4932082;29;20067;-71
2023/08/22 08:11:39;;;;;;;4.38;3.83;;;;;;;;;;4930156;29;20040;-71
2023/08/22 08:14:05;;;;;;;5.85;4.00;;;;;;;;;;4932045;29;20142;-71
2023/08/22 08:16:32;;;;;;;7.15;3.70;;;;;;;;;;4930837;28;20055;-72
2023/08/22 08:18:58;;;;;;;5.28;3.65;;;;;;;;;;4931344;29;20051;-72
2023/08/22 08:21:23;;;;;;;7.22;3.50;;;;;;;;;;4931343;29;20066;-71
2023/08/22 08:23:49;;;;;;;7.03;4.18;;;;;;;;;;4930805;28;20071;-72
2023/08/22 08:26:14;;;;;;;11.93;4.10;;;;;;;;;;4931350;29;20154;-72
2023/08/22 08:28:40;;;;;;;4.95;3.85;;;;;;;;;;4934533;28;20047;-72
2023/08/22 08:31:06;;;;;;;5.72;3.70;;;;;;;;;;4931096;29;20111;-72
2023/08/22 08:33:32;;;;;;;4.85;4.15;;;;;;;;;;4931595;29;20103;-73
2023/08/22 08:36:00;;;;;;;4.60;4.13;;;;;;;;;;4930844;29;20055;-73
2023/08/22 08:38:25;;;;;;;7.97;4.40;;;;;;;;;;4930675;29;20092;-72
2023/08/22 08:40:54;;;;;;;8.38;3.92;;;;;;;;;;4930687;28;20087;-73
2023/08/22 08:43:21;;;;;;;5.15;3.97;;;;;;;;;;4930849;29;20082;-72
2023/08/22 08:45:48;;;;;;;5.47;3.70;;;;;;;;;;4930493;29;20051;-73
2023/08/22 08:48:17;;;;;;;8.10;3.58;;;;;;;;;;4930849;29;20044;-72
2023/08/22 08:50:43;;;;;;;7.72;4.28;;;;;;;;;;4931194;29;20036;-71
2023/08/22 08:53:09;;;;;;;5.88;3.75;;;;;;;;;;4931385;28;20179;-74
2023/08/22 08:55:35;;;;;;;5.30;3.38;;;;;;;;;;4934423;29;20131;-71
2023/08/22 08:58:00;;;;;;;7.18;3.90;;;;;;;;;;4936494;28;20051;-71
2023/08/22 09:00:26;;;;;;;4.57;3.53;;;;;;;;;;4931322;29;20126;-71
2023/08/22 09:02:52;;;;;;;10.20;3.85;;;;;;;;;;4931549;29;20051;-70
2023/08/22 09:05:20;;;;;;;4.03;3.60;;;;;;;;;;4932096;28;20124;-71
2023/08/22 09:07:45;;;;;;;4.53;3.40;;;;;;;;;;4931388;29;20059;-73
2023/08/22 09:10:10;;;;;;;9.50;3.55;;;;;;;;;;4930175;29;20103;-73
2023/08/22 09:12:37;;;;;;;4.85;4.22;;;;;;;;;;4934564;29;20044;-73
2023/08/22 09:15:07;;;;;;;4.78;3.80;;;;;;;;;;4931207;29;20122;-71
2023/08/22 09:17:32;;;;;;;3.72;3.42;;;;;;;;;;4930298;28;20067;-71
2023/08/22 09:19:58;;;;;;;4.75;3.47;;;;;;;;;;4930790;29;20048;-72
2023/08/22 09:22:30;;;;;;;4.10;3.70;;;;;;;;;;4930848;29;20043;-72
2023/08/22 09:24:56;;;;;;;5.43;3.40;;;;;;;;;;4931452;29;20135;-71
2023/08/22 09:27:24;;;;;;;7.88;4.07;;;;;;;;;;4931992;29;20123;-72
2023/08/22 09:29:50;;;;;;;5.90;3.55;;;;;;;;;;4929407;28;20058;-72
2023/08/22 09:32:15;;;;;;;6.78;3.85;;;;;;;;;;4930687;29;20138;-71
2023/08/22 09:34:55;;;;;;;7.80;3.70;;;;;;;;;;4931263;28;20051;-71
2023/08/22 09:37:37;;;;;;;4.20;3.78;;;;;;;;;;4930031;29;20127;-71
2023/08/22 09:40:08;;;;;;;4.30;3.85;;;;;;;;;;4930406;28;20194;-70
2023/08/22 09:42:38;;;;;;;10.45;3.75;;;;;;;;;;4930993;29;20138;-72
2023/08/22 09:45:04;;;;;;;6.22;3.85;;;;;;;;;;4917547;29;20058;-71
2023/08/22 09:47:31;;;;;;;4.03;3.72;;;;;;;;;;4925839;28;20051;-72
2023/08/22 09:49:59;;;;;;;4.28;3.50;;;;;;;;;;4931022;29;20070;-72
2023/08/22 09:52:25;;;;;;;6.13;3.50;;;;;;;;;;4930990;28;20207;-71
2023/08/22 09:54:52;;;;;;;3.83;3.40;;;;;;;;;;4934589;29;20039;-72
2023/08/22 09:57:19;;;;;;;4.55;3.80;;;;;;;;;;4935022;29;20048;-71
2023/08/22 09:59:47;;;;;;;9.10;4.15;;;;;;;;;;4934670;28;20054;-71
2023/08/22 10:02:14;;;;;;;3.55;3.25;;;;;;;;;;4934944;29;20044;-70
2023/08/22 10:04:40;;;;;;;6.50;3.90;;;;;;;;;;4934691;29;20051;-71
2023/08/22 10:07:06;;;;;;;4.32;3.67;;;;;;;;;;4929101;29;20071;-71
2023/08/22 10:09:32;;;;;;;4.93;3.75;;;;;;;;;;4934647;29;20083;-72
2023/08/22 10:12:01;;;;;;;3.83;3.42;;;;;;;;;;4933655;28;20524;-72
2023/08/22 10:14:32;;;;;;;6.72;3.50;;;;;;;;;;4933429;29;20513;-72
2023/08/22 10:16:59;;;;;;;5.25;3.55;;;;;;;;;;4933818;29;20055;-72
2023/08/22 10:19:25;;;;;;;6.53;3.88;;;;;;;;;;4917460;29;20050;-71
2023/08/22 10:21:53;;;;;;;8.13;3.75;;;;;;;;;;4933667;28;20074;-71
2023/08/22 10:24:30;;;;;;;4.47;3.63;;;;;;;;;;4934405;29;20040;-72
2023/08/22 10:27:06;;;;;;;5.85;4.07;;;;;;;;;;4934231;29;20066;-72
2023/08/22 10:29:37;;;;;;;6.70;4.18;;;;;;;;;;4932729;28;20058;-72
2023/08/22 10:32:03;;;;;;;5.60;4.10;;;;;;;;;;4919635;29;20119;-72
2023/08/22 10:34:34;;;;;;;6.13;3.83;;;;;;;;;;4933137;29;20087;-72
2023/08/22 10:37:01;;;;;;;4.15;3.75;;;;;;;;;;4934058;29;20055;-71
2023/08/22 10:39:37;;;;;;;4.30;3.72;;;;;;;;;;4933637;29;20432;-71
2023/08/22 10:42:03;;;;;;;4.72;3.60;;;;;;;;;;4932873;29;20084;-70
2023/08/22 10:44:30;;;;;;;5.07;3.88;;;;;;;;;;4934891;29;20044;-72
2023/08/22 10:47:04;;;;;;;4.90;3.45;;;;;;;;;;4934030;29;20075;-73
2023/08/22 10:49:30;;;;;;;6.45;3.90;;;;;;;;;;4932739;29;20054;-72
2023/08/22 10:52:09;;;;;;;5.68;4.10;;;;;;;;;;4931843;28;20040;-73
2023/08/22 10:54:58;;;;;;;5.95;3.65;;;;;;;;;;4933881;29;20056;-72
2023/08/22 10:57:24;;;;;;;4.40;4.00;;;;;;;;;;4934094;29;20059;-73
2023/08/22 10:59:59;;;;;;;3.72;3.42;;;;;;;;;;4933249;28;20468;-73
2023/08/22 11:02:43;;;;;;;7.72;3.65;;;;;;;;;;4932978;29;20043;-73
2023/08/22 11:05:11;;;;;;;5.07;3.97;;;;;;;;;;4932886;28;20429;-73
2023/08/22 11:07:42;;;;;;;4.63;3.80;;;;;;;;;;4933670;29;20044;-71
2023/08/22 11:10:11;;;;;;;4.55;3.65;;;;;;;;;;4933117;28;20043;-74
2023/08/22 11:12:37;;;;;;;5.50;3.57;;;;;;;;;;4926158;29;20056;-71
2023/08/22 11:15:02;;;;;;;9.20;3.88;;;;;;;;;;4932246;29;20102;-71
2023/08/22 11:17:28;;;;;;;4.15;3.63;;;;;;;;;;4933681;29;20531;-73
2023/08/22 11:19:55;;;;;;;7.05;3.95;;;;;;;;;;4932906;29;20195;-73
2023/08/22 11:22:21;;;;;;;6.97;4.10;;;;;;;;;;4932232;29;20130;-73
2023/08/22 11:24:49;;;;;;;5.65;3.90;;;;;;;;;;4935814;29;20319;-73
2023/08/22 11:27:15;;;;;;;4.22;3.83;;;;;;;;;;4915136;29;20052;-73
2023/08/22 11:29:45;;;;;;;6.30;3.88;;;;;;;;;;4920087;29;20048;-73
2023/08/22 11:32:30;;;;;;;9.45;3.83;;;;;;;;;;4931761;29;20415;-73
2023/08/22 11:34:59;;;;;;;6.68;3.33;;;;;;;;;;4934839;28;20136;-73
2023/08/22 11:37:25;;;;;;;7.38;3.90;;;;;;;;;;4937617;29;20495;-72
2023/08/22 11:39:52;;;;;;;5.45;3.83;;;;;;;;;;4931167;28;20385;-72
2023/08/22 11:42:20;;;;;;;9.75;3.50;;;;;;;;;;4932769;29;20044;-73
2023/08/22 11:45:03;;;;;;;4.25;3.45;;;;;;;;;;4932345;29;20985;-74
2023/08/22 11:47:36;;;;;;;7.13;3.83;;;;;;;;;;4932597;29;20040;-72
2023/08/22 11:50:02;;;;;;;7.50;3.78;;;;;;;;;;4932685;29;20385;-73
2023/08/22 11:52:28;;;;;;;7.57;3.60;;;;;;;;;;4933390;28;20186;-73
2023/08/22 11:55:05;;;;;;;5.35;3.88;;;;;;;;;;4933295;29;20051;-73
2023/08/22 11:57:32;;;;;;;4.00;3.15;;;;;;;;;;4932632;28;20059;-74
2023/08/22 12:00:01;;;;;;;8.10;3.67;;;;;;;;;;4932219;28;20055;-72
2023/08/22 12:02:26;;;;;;;6.10;3.88;;;;;;;;;;4933028;29;20412;-73
2023/08/22 12:04:55;;;;;;;5.47;3.95;;;;;;;;;;4932956;29;20106;-73
2023/08/22 12:07:23;;;;;;;5.95;3.53;;;;;;;;;;4932088;29;20044;-73
2023/08/22 12:10:07;;;;;;;7.35;3.60;;;;;;;;;;4931672;28;20067;-73
2023/08/22 12:12:32;;;;;;;6.88;3.60;;;;;;;;;;4932677;29;20043;-74
2023/08/22 12:14:59;;;;;;;4.03;3.63;;;;;;;;;;4932842;29;20058;-73
2023/08/22 12:17:25;;;;;;;6.45;3.75;;;;;;;;;;4931122;29;20456;-73
2023/08/22 12:19:51;;;;;;;16.67;3.40;;;;;;;;;;4931777;29;20095;-73
2023/08/22 12:22:16;;;;;;;6.20;3.72;;;;;;;;;;4915023;29;20056;-73
2023/08/22 12:24:45;;;;;;;5.30;3.38;;;;;;;;;;4932075;29;20628;-73
2023/08/22 12:27:11;;;;;;;3.60;3.30;;;;;;;;;;4932407;29;20055;-73
2023/08/22 12:29:39;;;;;;;3.30;3.00;;;;;;;;;;4931817;28;20106;-73
2023/08/22 12:32:05;;;;;;;6.78;3.38;;;;;;;;;;4929985;29;20660;-73
2023/08/22 12:34:31;;;;;;;6.35;3.30;;;;;;;;;;4932091;28;20142;-73
2023/08/22 12:36:56;;;;;;;7.03;3.38;;;;;;;;;;4932035;29;20047;-73
2023/08/22 12:39:22;;;;;;;3.70;3.22;;;;;;;;;;4931420;29;20044;-73
2023/08/22 12:41:47;;;;;;;4.25;3.53;;;;;;;;;;4930747;28;20051;-72
2023/08/22 12:44:12;;;;;;;6.22;3.20;;;;;;;;;;4930807;29;20404;-73
2023/08/22 12:46:38;;;;;;;6.63;3.67;;;;;;;;;;4931859;29;20416;-74
2023/08/22 12:49:03;;;;;;;6.10;3.70;;;;;;;;;;4931864;29;20047;-73
